sensor_id;sensor_type;location;lat;lon;timestamp;P1;durP1;ratioP1;P2;durP2;ratioP2
25854;SDS011;13680;49.936;11.344;2022-11-15T00:01:39;14.10;;;7.30;;
25854;SDS011;13680;49.936;11.344;2022-11-15T00:04:05;11.40;;;6.88;;
25854;SDS011;13680;49.936;11.344;2022-11-15T00:06:31;14.77;;;7.22;;
25854;SDS011;13680;49.936;11.344;2022-11-15T00:08:59;11.77;;;7.13;;
25854;SDS011;13680;49.936;11.344;2022-11-15T00:11:25;14.43;;;6.50;;
25854;SDS011;13680;49.936;11.344;2022-11-15T00:13:50;14.15;;;7.05;;
25854;SDS011;13680;49.936;11.344;2022-11-15T00:16:16;12.52;;;6.55;;
25854;SDS011;13680;49.936;11.344;2022-11-15T00:18:41;12.43;;;7.10;;
25854;SDS011;13680;49.936;11.344;2022-11-15T00:21:08;11.93;;;6.88;;
25854;SDS011;13680;49.936;11.344;2022-11-15T00:23:35;11.27;;;7.10;;
25854;SDS011;13680;49.936;11.344;2022-11-15T00:26:02;14.07;;;6.78;;
25854;SDS011;13680;49.936;11.344;2022-11-15T00:28:27;12.05;;;6.85;;
25854;SDS011;13680;49.936;11.344;2022-11-15T00:30:53;10.77;;;6.50;;
25854;SDS011;13680;49.936;11.344;2022-11-15T00:33:18;14.40;;;6.63;;
25854;SDS011;13680;49.936;11.344;2022-11-15T00:35:43;10.73;;;6.78;;
25854;SDS011;13680;49.936;11.344;2022-11-15T00:38:09;14.55;;;7.25;;
25854;SDS011;13680;49.936;11.344;2022-11-15T00:40:34;15.38;;;7.38;;
25854;SDS011;13680;49.936;11.344;2022-11-15T00:42:59;18.15;;;8.10;;
25854;SDS011;13680;49.936;11.344;2022-11-15T00:45:25;11.23;;;7.28;;
25854;SDS011;13680;49.936;11.344;2022-11-15T00:47:51;10.77;;;6.97;;
25854;SDS011;13680;49.936;11.344;2022-11-15T00:50:17;11.25;;;7.00;;
25854;SDS011;13680;49.936;11.344;2022-11-15T00:52:43;11.75;;;7.10;;
25854;SDS011;13680;49.936;11.344;2022-11-15T00:55:12;12.82;;;7.35;;
25854;SDS011;13680;49.936;11.344;2022-11-15T00:57:39;11.93;;;7.43;;
25854;SDS011;13680;49.936;11.344;2022-11-15T01:00:05;11.32;;;7.15;;
25854;SDS011;13680;49.936;11.344;2022-11-15T01:02:31;13.32;;;7.32;;
25854;SDS011;13680;49.936;11.344;2022-11-15T01:04:56;11.30;;;7.38;;
25854;SDS011;13680;49.936;11.344;2022-11-15T01:07:21;13.65;;;7.93;;
25854;SDS011;13680;49.936;11.344;2022-11-15T01:09:47;12.60;;;7.30;;
25854;SDS011;13680;49.936;11.344;2022-11-15T01:12:12;11.65;;;7.47;;
25854;SDS011;13680;49.936;11.344;2022-11-15T01:14:37;13.00;;;6.70;;
25854;SDS011;13680;49.936;11.344;2022-11-15T01:17:02;8.90;;;5.80;;
25854;SDS011;13680;49.936;11.344;2022-11-15T01:19:28;11.15;;;5.68;;
25854;SDS011;13680;49.936;11.344;2022-11-15T01:21:53;8.35;;;5.70;;
25854;SDS011;13680;49.936;11.344;2022-11-15T01:24:18;9.82;;;5.97;;
25854;SDS011;13680;49.936;11.344;2022-11-15T01:26:44;10.00;;;6.38;;
25854;SDS011;13680;49.936;11.344;2022-11-15T01:29:09;12.55;;;6.43;;
25854;SDS011;13680;49.936;11.344;2022-11-15T01:31:34;12.43;;;7.35;;
25854;SDS011;13680;49.936;11.344;2022-11-15T01:34:00;16.83;;;7.18;;
25854;SDS011;13680;49.936;11.344;2022-11-15T01:36:25;10.10;;;6.57;;
25854;SDS011;13680;49.936;11.344;2022-11-15T01:38:54;11.10;;;6.70;;
25854;SDS011;13680;49.936;11.344;2022-11-15T01:41:26;13.15;;;6.85;;
25854;SDS011;13680;49.936;11.344;2022-11-15T01:43:55;9.50;;;6.20;;
25854;SDS011;13680;49.936;11.344;2022-11-15T01:46:41;13.65;;;7.07;;
25854;SDS011;13680;49.936;11.344;2022-11-15T01:49:12;13.63;;;6.40;;
25854;SDS011;13680;49.936;11.344;2022-11-15T01:51:41;10.38;;;6.20;;
25854;SDS011;13680;49.936;11.344;2022-11-15T01:54:08;10.63;;;6.43;;
25854;SDS011;13680;49.936;11.344;2022-11-15T01:57:04;16.58;;;7.00;;
25854;SDS011;13680;49.936;11.344;2022-11-15T01:59:31;10.00;;;6.28;;
25854;SDS011;13680;49.936;11.344;2022-11-15T02:01:58;12.30;;;6.90;;
25854;SDS011;13680;49.936;11.344;2022-11-15T02:04:27;9.90;;;5.60;;
25854;SDS011;13680;49.936;11.344;2022-11-15T02:06:55;8.48;;;5.82;;
25854;SDS011;13680;49.936;11.344;2022-11-15T02:09:20;10.13;;;6.10;;
25854;SDS011;13680;49.936;11.344;2022-11-15T02:11:46;11.32;;;6.78;;
25854;SDS011;13680;49.936;11.344;2022-11-15T02:14:13;10.85;;;6.15;;
25854;SDS011;13680;49.936;11.344;2022-11-15T02:16:58;9.93;;;7.05;;
25854;SDS011;13680;49.936;11.344;2022-11-15T02:19:43;11.57;;;6.20;;
25854;SDS011;13680;49.936;11.344;2022-11-15T02:22:37;11.55;;;6.80;;
25854;SDS011;13680;49.936;11.344;2022-11-15T02:39:28;9.90;;;6.90;;
25854;SDS011;13680;49.936;11.344;2022-11-15T02:42:13;13.57;;;6.97;;
25854;SDS011;13680;49.936;11.344;2022-11-15T02:45:03;12.07;;;6.90;;
25854;SDS011;13680;49.936;11.344;2022-11-15T02:47:33;12.35;;;6.60;;
25854;SDS011;13680;49.936;11.344;2022-11-15T02:50:08;14.05;;;8.35;;
25854;SDS011;13680;49.936;11.344;2022-11-15T02:52:37;11.18;;;7.10;;
25854;SDS011;13680;49.936;11.344;2022-11-15T02:55:02;12.85;;;6.80;;
25854;SDS011;13680;49.936;11.344;2022-11-15T03:00:25;13.15;;;7.35;;
25854;SDS011;13680;49.936;11.344;2022-11-15T03:08:18;18.08;;;7.90;;
25854;SDS011;13680;49.936;11.344;2022-11-15T03:11:03;19.10;;;7.82;;
25854;SDS011;13680;49.936;11.344;2022-11-15T03:13:36;14.32;;;8.43;;
25854;SDS011;13680;49.936;11.344;2022-11-15T03:18:35;13.55;;;7.50;;
25854;SDS011;13680;49.936;11.344;2022-11-15T03:21:04;12.40;;;7.40;;
25854;SDS011;13680;49.936;11.344;2022-11-15T03:23:33;15.93;;;8.00;;
25854;SDS011;13680;49.936;11.344;2022-11-15T03:26:01;17.30;;;7.63;;
25854;SDS011;13680;49.936;11.344;2022-11-15T03:28:42;13.18;;;7.53;;
25854;SDS011;13680;49.936;11.344;2022-11-15T03:31:12;11.82;;;7.40;;
25854;SDS011;13680;49.936;11.344;2022-11-15T03:33:59;10.25;;;6.68;;
25854;SDS011;13680;49.936;11.344;2022-11-15T03:36:29;16.23;;;8.20;;
25854;SDS011;13680;49.936;11.344;2022-11-15T03:38:58;13.15;;;8.10;;
25854;SDS011;13680;49.936;11.344;2022-11-15T03:41:42;16.77;;;8.25;;
25854;SDS011;13680;49.936;11.344;2022-11-15T03:47:21;12.55;;;6.82;;
25854;SDS011;13680;49.936;11.344;2022-11-15T03:49:53;13.32;;;7.03;;
25854;SDS011;13680;49.936;11.344;2022-11-15T03:52:24;9.48;;;6.88;;
25854;SDS011;13680;49.936;11.344;2022-11-15T03:54:54;12.82;;;7.60;;
25854;SDS011;13680;49.936;11.344;2022-11-15T03:57:21;13.90;;;7.72;;
25854;SDS011;13680;49.936;11.344;2022-11-15T03:59:46;12.27;;;7.68;;
25854;SDS011;13680;49.936;11.344;2022-11-15T04:02:12;11.55;;;7.07;;
25854;SDS011;13680;49.936;11.344;2022-11-15T04:04:38;14.07;;;7.55;;
25854;SDS011;13680;49.936;11.344;2022-11-15T04:07:04;17.55;;;7.65;;
25854;SDS011;13680;49.936;11.344;2022-11-15T04:09:30;17.38;;;8.00;;
25854;SDS011;13680;49.936;11.344;2022-11-15T04:11:55;15.73;;;8.30;;
25854;SDS011;13680;49.936;11.344;2022-11-15T04:14:20;14.15;;;8.70;;
25854;SDS011;13680;49.936;11.344;2022-11-15T04:16:46;12.45;;;7.38;;
25854;SDS011;13680;49.936;11.344;2022-11-15T04:19:11;14.20;;;7.60;;
25854;SDS011;13680;49.936;11.344;2022-11-15T04:21:55;12.43;;;7.20;;
25854;SDS011;13680;49.936;11.344;2022-11-15T04:24:39;13.25;;;7.32;;
25854;SDS011;13680;49.936;11.344;2022-11-15T04:27:04;15.50;;;8.38;;
25854;SDS011;13680;49.936;11.344;2022-11-15T04:29:29;17.38;;;8.10;;
25854;SDS011;13680;49.936;11.344;2022-11-15T04:32:01;18.60;;;9.13;;
25854;SDS011;13680;49.936;11.344;2022-11-15T04:34:30;13.77;;;8.20;;
25854;SDS011;13680;49.936;11.344;2022-11-15T04:36:56;11.05;;;8.20;;
25854;SDS011;13680;49.936;11.344;2022-11-15T04:39:37;15.55;;;8.00;;
25854;SDS011;13680;49.936;11.344;2022-11-15T04:42:04;15.00;;;7.88;;
25854;SDS011;13680;49.936;11.344;2022-11-15T04:44:29;14.02;;;8.30;;
25854;SDS011;13680;49.936;11.344;2022-11-15T04:46:54;12.30;;;7.55;;
25854;SDS011;13680;49.936;11.344;2022-11-15T04:49:20;13.07;;;8.05;;
25854;SDS011;13680;49.936;11.344;2022-11-15T04:51:45;14.73;;;7.90;;
25854;SDS011;13680;49.936;11.344;2022-11-15T04:54:11;12.10;;;7.45;;
25854;SDS011;13680;49.936;11.344;2022-11-15T04:56:36;16.52;;;8.80;;
25854;SDS011;13680;49.936;11.344;2022-11-15T04:59:02;12.13;;;7.38;;
25854;SDS011;13680;49.936;11.344;2022-11-15T05:01:27;14.43;;;7.53;;
25854;SDS011;13680;49.936;11.344;2022-11-15T05:03:52;13.82;;;7.30;;
25854;SDS011;13680;49.936;11.344;2022-11-15T05:06:36;15.30;;;6.90;;
25854;SDS011;13680;49.936;11.344;2022-11-15T05:09:02;12.18;;;7.63;;
25854;SDS011;13680;49.936;11.344;2022-11-15T05:11:28;14.25;;;7.97;;
25854;SDS011;13680;49.936;11.344;2022-11-15T05:13:53;14.55;;;8.07;;
25854;SDS011;13680;49.936;11.344;2022-11-15T05:16:18;12.02;;;6.93;;
25854;SDS011;13680;49.936;11.344;2022-11-15T05:18:44;15.50;;;8.05;;
25854;SDS011;13680;49.936;11.344;2022-11-15T05:21:10;15.52;;;7.78;;
25854;SDS011;13680;49.936;11.344;2022-11-15T05:23:38;13.38;;;8.02;;
25854;SDS011;13680;49.936;11.344;2022-11-15T05:26:04;15.73;;;8.57;;
25854;SDS011;13680;49.936;11.344;2022-11-15T05:28:31;15.88;;;8.38;;
25854;SDS011;13680;49.936;11.344;2022-11-15T05:33:34;19.92;;;7.95;;
25854;SDS011;13680;49.936;11.344;2022-11-15T05:36:07;14.02;;;8.15;;
25854;SDS011;13680;49.936;11.344;2022-11-15T05:38:38;12.65;;;7.88;;
25854;SDS011;13680;49.936;11.344;2022-11-15T05:41:04;13.68;;;7.80;;
25854;SDS011;13680;49.936;11.344;2022-11-15T05:43:30;14.60;;;7.97;;
25854;SDS011;13680;49.936;11.344;2022-11-15T05:45:59;14.32;;;7.95;;
25854;SDS011;13680;49.936;11.344;2022-11-15T05:48:28;12.93;;;8.18;;
25854;SDS011;13680;49.936;11.344;2022-11-15T05:50:53;18.20;;;9.70;;
25854;SDS011;13680;49.936;11.344;2022-11-15T05:53:19;13.27;;;7.97;;
25854;SDS011;13680;49.936;11.344;2022-11-15T05:55:48;17.33;;;7.82;;
25854;SDS011;13680;49.936;11.344;2022-11-15T05:58:13;18.40;;;9.23;;
25854;SDS011;13680;49.936;11.344;2022-11-15T06:00:39;18.25;;;9.15;;
25854;SDS011;13680;49.936;11.344;2022-11-15T06:03:04;17.73;;;8.50;;
25854;SDS011;13680;49.936;11.344;2022-11-15T06:05:30;16.40;;;7.85;;
25854;SDS011;13680;49.936;11.344;2022-11-15T06:07:58;15.57;;;8.75;;
25854;SDS011;13680;49.936;11.344;2022-11-15T06:10:24;17.65;;;9.02;;
25854;SDS011;13680;49.936;11.344;2022-11-15T06:12:56;15.63;;;9.00;;
25854;SDS011;13680;49.936;11.344;2022-11-15T06:15:25;14.90;;;8.15;;
25854;SDS011;13680;49.936;11.344;2022-11-15T06:17:51;13.82;;;7.85;;
25854;SDS011;13680;49.936;11.344;2022-11-15T06:20:16;14.60;;;8.20;;
25854;SDS011;13680;49.936;11.344;2022-11-15T06:22:42;15.70;;;8.73;;
25854;SDS011;13680;49.936;11.344;2022-11-15T06:25:07;19.83;;;10.10;;
25854;SDS011;13680;49.936;11.344;2022-11-15T06:27:33;15.20;;;9.15;;
25854;SDS011;13680;49.936;11.344;2022-11-15T06:30:01;15.85;;;10.02;;
25854;SDS011;13680;49.936;11.344;2022-11-15T06:32:28;19.02;;;8.80;;
25854;SDS011;13680;49.936;11.344;2022-11-15T06:34:54;17.15;;;9.40;;
25854;SDS011;13680;49.936;11.344;2022-11-15T06:37:19;21.17;;;8.88;;
25854;SDS011;13680;49.936;11.344;2022-11-15T06:39:44;16.13;;;9.05;;
25854;SDS011;13680;49.936;11.344;2022-11-15T06:42:09;21.42;;;8.75;;
25854;SDS011;13680;49.936;11.344;2022-11-15T06:44:35;18.13;;;8.70;;
25854;SDS011;13680;49.936;11.344;2022-11-15T06:47:00;17.15;;;9.43;;
25854;SDS011;13680;49.936;11.344;2022-11-15T06:49:25;18.55;;;9.57;;
25854;SDS011;13680;49.936;11.344;2022-11-15T06:51:51;18.63;;;8.75;;
25854;SDS011;13680;49.936;11.344;2022-11-15T06:54:16;21.25;;;9.20;;
25854;SDS011;13680;49.936;11.344;2022-11-15T06:56:41;15.75;;;9.50;;
25854;SDS011;13680;49.936;11.344;2022-11-15T06:59:07;16.27;;;9.60;;
25854;SDS011;13680;49.936;11.344;2022-11-15T07:01:32;16.23;;;8.73;;
25854;SDS011;13680;49.936;11.344;2022-11-15T07:03:57;15.05;;;7.82;;
25854;SDS011;13680;49.936;11.344;2022-11-15T07:06:23;16.35;;;8.85;;
25854;SDS011;13680;49.936;11.344;2022-11-15T07:08:48;14.45;;;8.55;;
25854;SDS011;13680;49.936;11.344;2022-11-15T07:11:13;15.27;;;9.02;;
25854;SDS011;13680;49.936;11.344;2022-11-15T07:13:39;17.88;;;8.23;;
25854;SDS011;13680;49.936;11.344;2022-11-15T07:16:05;18.80;;;8.68;;
25854;SDS011;13680;49.936;11.344;2022-11-15T07:18:36;14.68;;;8.73;;
25854;SDS011;13680;49.936;11.344;2022-11-15T07:21:05;13.63;;;7.97;;
25854;SDS011;13680;49.936;11.344;2022-11-15T07:23:32;23.85;;;9.60;;
25854;SDS011;13680;49.936;11.344;2022-11-15T07:25:58;18.10;;;8.95;;
25854;SDS011;13680;49.936;11.344;2022-11-15T07:28:24;20.65;;;8.50;;
25854;SDS011;13680;49.936;11.344;2022-11-15T07:30:54;15.40;;;9.40;;
25854;SDS011;13680;49.936;11.344;2022-11-15T07:33:20;16.42;;;8.85;;
25854;SDS011;13680;49.936;11.344;2022-11-15T07:35:45;13.98;;;8.27;;
25854;SDS011;13680;49.936;11.344;2022-11-15T07:38:14;15.68;;;9.57;;
25854;SDS011;13680;49.936;11.344;2022-11-15T07:40:40;18.58;;;9.10;;
25854;SDS011;13680;49.936;11.344;2022-11-15T07:43:06;14.00;;;8.35;;
25854;SDS011;13680;49.936;11.344;2022-11-15T07:45:33;16.27;;;8.95;;
25854;SDS011;13680;49.936;11.344;2022-11-15T07:47:59;18.58;;;9.00;;
25854;SDS011;13680;49.936;11.344;2022-11-15T07:50:24;15.40;;;8.82;;
25854;SDS011;13680;49.936;11.344;2022-11-15T07:52:54;26.05;;;12.30;;
25854;SDS011;13680;49.936;11.344;2022-11-15T07:55:21;19.35;;;10.15;;
25854;SDS011;13680;49.936;11.344;2022-11-15T07:57:48;19.92;;;10.52;;
25854;SDS011;13680;49.936;11.344;2022-11-15T08:00:13;22.92;;;10.25;;
25854;SDS011;13680;49.936;11.344;2022-11-15T08:02:39;18.48;;;10.77;;
25854;SDS011;13680;49.936;11.344;2022-11-15T08:05:04;20.70;;;10.82;;
25854;SDS011;13680;49.936;11.344;2022-11-15T08:07:30;25.38;;;12.10;;
25854;SDS011;13680;49.936;11.344;2022-11-15T08:09:57;23.75;;;11.77;;
25854;SDS011;13680;49.936;11.344;2022-11-15T08:12:23;20.40;;;11.10;;
25854;SDS011;13680;49.936;11.344;2022-11-15T08:14:48;25.52;;;12.38;;
25854;SDS011;13680;49.936;11.344;2022-11-15T08:17:14;26.13;;;15.07;;
25854;SDS011;13680;49.936;11.344;2022-11-15T08:19:39;31.35;;;17.88;;
25854;SDS011;13680;49.936;11.344;2022-11-15T08:22:04;29.60;;;17.35;;
25854;SDS011;13680;49.936;11.344;2022-11-15T08:24:29;34.92;;;15.90;;
25854;SDS011;13680;49.936;11.344;2022-11-15T08:26:55;27.02;;;14.95;;
25854;SDS011;13680;49.936;11.344;2022-11-15T08:29:20;27.00;;;17.15;;
25854;SDS011;13680;49.936;11.344;2022-11-15T08:31:45;30.00;;;17.55;;
25854;SDS011;13680;49.936;11.344;2022-11-15T08:34:11;98.07;;;60.15;;
25854;SDS011;13680;49.936;11.344;2022-11-15T08:36:36;49.67;;;20.90;;
25854;SDS011;13680;49.936;11.344;2022-11-15T08:39:01;37.70;;;17.77;;
25854;SDS011;13680;49.936;11.344;2022-11-15T08:41:31;40.35;;;26.00;;
25854;SDS011;13680;49.936;11.344;2022-11-15T08:44:00;52.28;;;30.50;;
25854;SDS011;13680;49.936;11.344;2022-11-15T08:46:26;35.00;;;20.00;;
25854;SDS011;13680;49.936;11.344;2022-11-15T08:48:51;26.88;;;15.95;;
25854;SDS011;13680;49.936;11.344;2022-11-15T08:51:16;24.35;;;14.27;;
25854;SDS011;13680;49.936;11.344;2022-11-15T08:53:42;26.10;;;15.77;;
25854;SDS011;13680;49.936;11.344;2022-11-15T08:56:08;24.98;;;15.35;;
25854;SDS011;13680;49.936;11.344;2022-11-15T08:58:35;23.00;;;12.27;;
25854;SDS011;13680;49.936;11.344;2022-11-15T09:01:01;24.83;;;14.10;;
25854;SDS011;13680;49.936;11.344;2022-11-15T09:03:26;25.08;;;14.00;;
25854;SDS011;13680;49.936;11.344;2022-11-15T09:05:55;22.17;;;13.75;;
25854;SDS011;13680;49.936;11.344;2022-11-15T09:08:22;24.23;;;13.13;;
25854;SDS011;13680;49.936;11.344;2022-11-15T09:10:48;18.27;;;11.20;;
25854;SDS011;13680;49.936;11.344;2022-11-15T09:13:13;21.13;;;10.43;;
25854;SDS011;13680;49.936;11.344;2022-11-15T09:15:39;15.80;;;9.55;;
25854;SDS011;13680;49.936;11.344;2022-11-15T09:18:04;13.07;;;9.23;;
25854;SDS011;13680;49.936;11.344;2022-11-15T09:20:29;16.95;;;9.57;;
25854;SDS011;13680;49.936;11.344;2022-11-15T09:22:58;12.60;;;8.45;;
25854;SDS011;13680;49.936;11.344;2022-11-15T09:25:24;14.75;;;8.98;;
25854;SDS011;13680;49.936;11.344;2022-11-15T09:27:49;13.98;;;8.93;;
25854;SDS011;13680;49.936;11.344;2022-11-15T09:30:15;12.35;;;7.22;;
25854;SDS011;13680;49.936;11.344;2022-11-15T09:32:40;11.48;;;7.85;;
25854;SDS011;13680;49.936;11.344;2022-11-15T09:35:06;17.35;;;11.25;;
25854;SDS011;13680;49.936;11.344;2022-11-15T09:37:32;14.00;;;8.85;;
25854;SDS011;13680;49.936;11.344;2022-11-15T09:39:57;13.63;;;8.13;;
25854;SDS011;13680;49.936;11.344;2022-11-15T09:47:40;13.10;;;6.78;;
25854;SDS011;13680;49.936;11.344;2022-11-15T09:50:28;9.50;;;6.85;;
25854;SDS011;13680;49.936;11.344;2022-11-15T09:52:59;9.75;;;5.82;;
25854;SDS011;13680;49.936;11.344;2022-11-15T09:55:27;10.68;;;6.32;;
25854;SDS011;13680;49.936;11.344;2022-11-15T09:58:10;11.25;;;6.38;;
25854;SDS011;13680;49.936;11.344;2022-11-15T10:00:47;9.95;;;6.88;;
25854;SDS011;13680;49.936;11.344;2022-11-15T10:03:27;10.70;;;6.90;;
25854;SDS011;13680;49.936;11.344;2022-11-15T10:06:02;9.05;;;6.40;;
25854;SDS011;13680;49.936;11.344;2022-11-15T10:08:31;14.00;;;9.73;;
25854;SDS011;13680;49.936;11.344;2022-11-15T10:11:11;9.77;;;6.82;;
25854;SDS011;13680;49.936;11.344;2022-11-15T10:13:51;10.85;;;6.20;;
25854;SDS011;13680;49.936;11.344;2022-11-15T10:18:59;10.63;;;5.60;;
25854;SDS011;13680;49.936;11.344;2022-11-15T10:21:40;9.75;;;6.18;;
25854;SDS011;13680;49.936;11.344;2022-11-15T10:24:17;11.68;;;6.07;;
25854;SDS011;13680;49.936;11.344;2022-11-15T10:26:47;9.00;;;5.35;;
25854;SDS011;13680;49.936;11.344;2022-11-15T10:29:19;8.88;;;5.60;;
25854;SDS011;13680;49.936;11.344;2022-11-15T10:31:46;10.30;;;5.57;;
25854;SDS011;13680;49.936;11.344;2022-11-15T10:36:45;12.73;;;5.60;;
25854;SDS011;13680;49.936;11.344;2022-11-15T10:39:12;27.35;;;11.20;;
25854;SDS011;13680;49.936;11.344;2022-11-15T10:41:39;8.98;;;5.32;;
25854;SDS011;13680;49.936;11.344;2022-11-15T10:46:31;8.23;;;4.57;;
25854;SDS011;13680;49.936;11.344;2022-11-15T10:49:17;7.68;;;5.03;;
25854;SDS011;13680;49.936;11.344;2022-11-15T10:51:46;7.60;;;4.75;;
25854;SDS011;13680;49.936;11.344;2022-11-15T10:54:15;7.75;;;4.32;;
25854;SDS011;13680;49.936;11.344;2022-11-15T10:56:50;6.57;;;4.65;;
25854;SDS011;13680;49.936;11.344;2022-11-15T10:59:23;8.70;;;4.43;;
25854;SDS011;13680;49.936;11.344;2022-11-15T11:01:52;5.22;;;3.90;;
25854;SDS011;13680;49.936;11.344;2022-11-15T11:04:17;7.05;;;3.70;;
25854;SDS011;13680;49.936;11.344;2022-11-15T11:09:36;5.43;;;3.85;;
25854;SDS011;13680;49.936;11.344;2022-11-15T11:12:05;7.90;;;3.45;;
25854;SDS011;13680;49.936;11.344;2022-11-15T11:14:35;5.45;;;3.67;;
25854;SDS011;13680;49.936;11.344;2022-11-15T11:31:27;5.78;;;3.20;;
25854;SDS011;13680;49.936;11.344;2022-11-15T11:47:47;8.52;;;3.70;;
25854;SDS011;13680;49.936;11.344;2022-11-15T11:50:19;6.20;;;2.80;;
25854;SDS011;13680;49.936;11.344;2022-11-15T11:52:56;3.75;;;2.72;;
25854;SDS011;13680;49.936;11.344;2022-11-15T11:55:39;3.78;;;2.85;;
25854;SDS011;13680;49.936;11.344;2022-11-15T11:58:16;8.50;;;3.08;;
25854;SDS011;13680;49.936;11.344;2022-11-15T12:00:55;6.82;;;3.58;;
25854;SDS011;13680;49.936;11.344;2022-11-15T12:14:12;6.78;;;3.00;;
25854;SDS011;13680;49.936;11.344;2022-11-15T12:16:47;5.60;;;3.05;;
25854;SDS011;13680;49.936;11.344;2022-11-15T12:19:12;4.70;;;2.88;;
25854;SDS011;13680;49.936;11.344;2022-11-15T12:21:46;4.50;;;2.40;;
25854;SDS011;13680;49.936;11.344;2022-11-15T12:24:23;6.35;;;2.60;;
25854;SDS011;13680;49.936;11.344;2022-11-15T12:26:52;4.80;;;3.22;;
25854;SDS011;13680;49.936;11.344;2022-11-15T12:29:25;8.63;;;3.83;;
25854;SDS011;13680;49.936;11.344;2022-11-15T12:31:54;4.93;;;3.38;;
25854;SDS011;13680;49.936;11.344;2022-11-15T12:36:53;7.72;;;4.82;;
25854;SDS011;13680;49.936;11.344;2022-11-15T12:39:19;8.65;;;3.90;;
25854;SDS011;13680;49.936;11.344;2022-11-15T12:42:34;11.88;;;8.38;;
25854;SDS011;13680;49.936;11.344;2022-11-15T12:47:21;6.15;;;5.00;;
25854;SDS011;13680;49.936;11.344;2022-11-15T12:49:48;6.88;;;3.17;;
25854;SDS011;13680;49.936;11.344;2022-11-15T12:52:14;8.45;;;4.18;;
25854;SDS011;13680;49.936;11.344;2022-11-15T13:02:19;7.43;;;3.42;;
25854;SDS011;13680;49.936;11.344;2022-11-15T13:04:46;5.10;;;3.13;;
25854;SDS011;13680;49.936;11.344;2022-11-15T13:09:59;6.70;;;2.88;;
25854;SDS011;13680;49.936;11.344;2022-11-15T13:14:54;6.63;;;3.20;;
25854;SDS011;13680;49.936;11.344;2022-11-15T13:22:45;6.45;;;3.30;;
25854;SDS011;13680;49.936;11.344;2022-11-15T13:30:34;12.98;;;3.30;;
25854;SDS011;13680;49.936;11.344;2022-11-15T13:33:07;11.75;;;3.53;;
25854;SDS011;13680;49.936;11.344;2022-11-15T13:35:39;5.85;;;3.63;;
25854;SDS011;13680;49.936;11.344;2022-11-15T13:38:06;5.88;;;2.92;;
25854;SDS011;13680;49.936;11.344;2022-11-15T13:40:35;7.63;;;3.45;;
25854;SDS011;13680;49.936;11.344;2022-11-15T13:48:31;7.00;;;3.25;;
25854;SDS011;13680;49.936;11.344;2022-11-15T13:50:58;8.32;;;3.20;;
25854;SDS011;13680;49.936;11.344;2022-11-15T13:53:24;6.85;;;3.85;;
25854;SDS011;13680;49.936;11.344;2022-11-15T13:55:50;5.13;;;3.20;;
25854;SDS011;13680;49.936;11.344;2022-11-15T13:58:19;6.35;;;4.03;;
25854;SDS011;13680;49.936;11.344;2022-11-15T14:00:45;7.15;;;3.70;;
25854;SDS011;13680;49.936;11.344;2022-11-15T14:03:27;5.88;;;3.97;;
25854;SDS011;13680;49.936;11.344;2022-11-15T14:13:40;8.85;;;4.07;;
25854;SDS011;13680;49.936;11.344;2022-11-15T14:18:48;7.78;;;4.70;;
25854;SDS011;13680;49.936;11.344;2022-11-15T14:21:15;15.23;;;5.30;;
25854;SDS011;13680;49.936;11.344;2022-11-15T14:23:42;7.53;;;4.15;;
25854;SDS011;13680;49.936;11.344;2022-11-15T14:26:11;6.32;;;4.55;;
25854;SDS011;13680;49.936;11.344;2022-11-15T14:28:52;9.73;;;4.93;;
25854;SDS011;13680;49.936;11.344;2022-11-15T14:31:17;12.20;;;5.32;;
25854;SDS011;13680;49.936;11.344;2022-11-15T14:33:43;10.52;;;6.35;;
25854;SDS011;13680;49.936;11.344;2022-11-15T14:36:16;26.70;;;14.80;;
25854;SDS011;13680;49.936;11.344;2022-11-15T14:38:43;18.13;;;11.20;;
25854;SDS011;13680;49.936;11.344;2022-11-15T14:41:19;10.77;;;6.20;;
25854;SDS011;13680;49.936;11.344;2022-11-15T14:43:50;12.23;;;5.45;;
25854;SDS011;13680;49.936;11.344;2022-11-15T14:46:16;11.45;;;6.38;;
25854;SDS011;13680;49.936;11.344;2022-11-15T14:48:42;19.98;;;5.63;;
25854;SDS011;13680;49.936;11.344;2022-11-15T14:51:12;14.73;;;5.32;;
25854;SDS011;13680;49.936;11.344;2022-11-15T14:53:39;18.88;;;11.20;;
25854;SDS011;13680;49.936;11.344;2022-11-15T14:56:04;9.43;;;5.82;;
25854;SDS011;13680;49.936;11.344;2022-11-15T14:58:30;8.10;;;5.18;;
25854;SDS011;13680;49.936;11.344;2022-11-15T15:00:55;12.50;;;5.22;;
25854;SDS011;13680;49.936;11.344;2022-11-15T15:03:20;11.95;;;5.22;;
25854;SDS011;13680;49.936;11.344;2022-11-15T15:05:46;12.80;;;7.53;;
25854;SDS011;13680;49.936;11.344;2022-11-15T15:08:11;11.15;;;6.30;;
25854;SDS011;13680;49.936;11.344;2022-11-15T15:10:38;9.48;;;6.15;;
25854;SDS011;13680;49.936;11.344;2022-11-15T15:13:08;10.88;;;6.65;;
25854;SDS011;13680;49.936;11.344;2022-11-15T15:15:40;16.95;;;6.82;;
25854;SDS011;13680;49.936;11.344;2022-11-15T15:18:05;8.80;;;6.70;;
25854;SDS011;13680;49.936;11.344;2022-11-15T15:20:33;10.85;;;6.28;;
25854;SDS011;13680;49.936;11.344;2022-11-15T15:22:59;15.20;;;7.78;;
25854;SDS011;13680;49.936;11.344;2022-11-15T15:25:29;11.32;;;7.15;;
25854;SDS011;13680;49.936;11.344;2022-11-15T15:27:57;14.43;;;6.53;;
25854;SDS011;13680;49.936;11.344;2022-11-15T15:30:23;12.50;;;6.43;;
25854;SDS011;13680;49.936;11.344;2022-11-15T15:32:49;11.20;;;6.40;;
25854;SDS011;13680;49.936;11.344;2022-11-15T15:35:15;10.68;;;6.15;;
25854;SDS011;13680;49.936;11.344;2022-11-15T15:37:41;11.00;;;6.80;;
25854;SDS011;13680;49.936;11.344;2022-11-15T15:40:10;8.45;;;6.03;;
25854;SDS011;13680;49.936;11.344;2022-11-15T15:42:38;21.67;;;8.13;;
25854;SDS011;13680;49.936;11.344;2022-11-15T15:45:03;12.55;;;7.38;;
25854;SDS011;13680;49.936;11.344;2022-11-15T15:47:30;10.05;;;6.35;;
25854;SDS011;13680;49.936;11.344;2022-11-15T15:49:55;9.38;;;5.88;;
25854;SDS011;13680;49.936;11.344;2022-11-15T15:52:20;13.52;;;6.00;;
25854;SDS011;13680;49.936;11.344;2022-11-15T15:54:45;18.33;;;6.60;;
25854;SDS011;13680;49.936;11.344;2022-11-15T15:57:11;11.25;;;5.93;;
25854;SDS011;13680;49.936;11.344;2022-11-15T15:59:38;11.57;;;6.22;;
25854;SDS011;13680;49.936;11.344;2022-11-15T16:02:03;14.48;;;6.50;;
25854;SDS011;13680;49.936;11.344;2022-11-15T16:04:29;13.98;;;6.85;;
25854;SDS011;13680;49.936;11.344;2022-11-15T16:06:58;53.15;;;27.88;;
25854;SDS011;13680;49.936;11.344;2022-11-15T16:09:24;118.43;;;47.58;;
25854;SDS011;13680;49.936;11.344;2022-11-15T16:12:08;126.78;;;53.08;;
25854;SDS011;13680;49.936;11.344;2022-11-15T16:14:33;19.38;;;9.88;;
25854;SDS011;13680;49.936;11.344;2022-11-15T16:16:59;31.88;;;17.50;;
25854;SDS011;13680;49.936;11.344;2022-11-15T16:19:24;93.20;;;47.40;;
25854;SDS011;13680;49.936;11.344;2022-11-15T16:21:49;237.57;;;119.38;;
25854;SDS011;13680;49.936;11.344;2022-11-15T16:24:16;133.88;;;58.90;;
25854;SDS011;13680;49.936;11.344;2022-11-15T16:26:42;453.77;;;191.07;;
25854;SDS011;13680;49.936;11.344;2022-11-15T16:29:08;397.10;;;147.70;;
25854;SDS011;13680;49.936;11.344;2022-11-15T16:31:35;146.90;;;56.83;;
25854;SDS011;13680;49.936;11.344;2022-11-15T16:34:00;182.15;;;87.10;;
25854;SDS011;13680;49.936;11.344;2022-11-15T16:36:26;99.63;;;45.55;;
25854;SDS011;13680;49.936;11.344;2022-11-15T16:38:51;165.55;;;66.47;;